Decoded Metar for FMMI (ANTANANARIVO in MADAGASCAR) (IATA:TNR) | Meteo·Mobile Aviation Weather
aviador You're here:

FMMI Decoded Metar

ANTANANARIVO in MADAGASCAR
Report Time2019-01-18 14:00:00
UTC Time2019-01-18 14:11:31
Flight Rules vfr VFR
Wind290° at 12 kt
W.Decomp.*RWY 29: 11.6 kt HW 3.1 kt RCW
W.Rank290° ranks 16
Current wind is above 290° avg. (6.1)
Visibility9999 m
Phenomena:N/A
Clouds:Scattered CB 020 Hf
Expected CloudBase > 3,600 ft AGL from Temp-Dew spread
CeilingNone
Temp27°C (ISA +20)
Dew Point18°C (58% RH)
Heat Index27.9°C
AAT25.5°C
QNH1014 hPa
Density Alt6,762 ft
Elevation4,186 ft
Report Wrong Elevation
Raw Report
METAR FMMI 181400Z 29012KT 250V320 9999 SCT020CB 27/18 Q1014 NOSIG=

Extra information for FMMI:More info

Metar Taf Metar & Taf Last 4 Metars F.Rules Stats Wind Profile Meteogram Temp Stats Airport Information Weather charts Add Link Nearby VenuesMetar ALERT Operation Metar Decoded Social comments